createdAt,value
2023-04-27T00:00:09.842Z,197.55
2023-04-27T00:01:09.829Z,185.76
2023-04-27T00:02:09.884Z,178.00
2023-04-27T00:03:10.077Z,178.19
2023-04-27T00:04:09.947Z,172.28
2023-04-27T00:05:09.873Z,162.67
2023-04-27T00:06:09.986Z,156.25
2023-04-27T00:07:09.765Z,136.61
2023-04-27T00:08:09.764Z,117.66
2023-04-27T00:09:09.740Z,110.25
2023-04-27T00:10:09.721Z,105.69
2023-04-27T00:11:09.736Z,106.16
2023-04-27T00:12:09.688Z,110.17
2023-04-27T00:13:09.676Z,114.03
2023-04-27T00:14:09.677Z,115.69
2023-04-27T00:15:09.676Z,117.66
2023-04-27T00:16:09.709Z,120.12
2023-04-27T00:17:09.631Z,124.44
2023-04-27T00:18:09.712Z,130.80
2023-04-27T00:19:09.612Z,133.43
2023-04-27T00:20:09.596Z,131.84
2023-04-27T00:21:09.597Z,135.82
2023-04-27T00:22:09.573Z,138.66
2023-04-27T00:23:09.544Z,144.82
2023-04-27T00:24:09.566Z,147.78
2023-04-27T00:25:09.525Z,151.55
2023-04-27T00:26:09.504Z,149.77
2023-04-27T00:27:09.546Z,151.00
2023-04-27T00:28:09.491Z,156.10
2023-04-27T00:29:09.471Z,158.33
2023-04-27T00:30:09.484Z,156.54
2023-04-27T00:31:09.476Z,157.73
2023-04-27T00:32:09.510Z,158.03
2023-04-27T00:33:09.439Z,161.56
2023-04-27T00:34:09.406Z,160.63
2023-04-27T00:35:09.403Z,156.84
2023-04-27T00:36:09.388Z,160.78
2023-04-27T00:37:09.402Z,162.04
2023-04-27T00:38:09.373Z,160.47
2023-04-27T00:39:09.359Z,160.32
2023-04-27T00:40:09.334Z,158.79
2023-04-27T00:41:09.337Z,159.40
2023-04-27T00:42:09.322Z,142.95
2023-04-27T00:43:09.312Z,123.61
2023-04-27T00:44:09.279Z,113.40
2023-04-27T00:45:09.295Z,104.76
2023-04-27T00:46:09.315Z,97.17
2023-04-27T00:47:09.248Z,91.51
2023-04-27T00:48:09.315Z,87.37
2023-04-27T00:49:09.232Z,85.40
2023-04-27T00:50:09.230Z,83.68
2023-04-27T00:51:09.217Z,81.15
2023-04-27T00:52:09.189Z,80.29
2023-04-27T00:53:09.181Z,80.83
2023-04-27T00:54:09.160Z,82.27
2023-04-27T00:55:09.152Z,90.02
2023-04-27T00:56:09.150Z,95.07
2023-04-27T00:57:09.130Z,95.38
2023-04-27T00:58:09.103Z,97.05
2023-04-27T00:59:09.122Z,98.49
2023-04-27T01:00:09.162Z,99.25
2023-04-27T01:01:09.106Z,101.62
2023-04-27T01:02:09.119Z,105.89
2023-04-27T01:03:09.088Z,107.81
2023-04-27T01:04:09.318Z,109.38
2023-04-27T01:05:09.034Z,110.83
2023-04-27T01:06:09.031Z,112.86
2023-04-27T01:07:09.030Z,111.28
2023-04-27T01:08:09.006Z,105.76
2023-04-27T01:09:08.965Z,101.87
2023-04-27T01:10:08.948Z,98.02
2023-04-27T01:11:08.948Z,94.35
2023-04-27T01:12:08.952Z,95.84
2023-04-27T01:13:08.903Z,90.51
2023-04-27T01:14:08.899Z,88.58
2023-04-27T01:15:08.920Z,85.49
2023-04-27T01:16:08.897Z,80.21
2023-04-27T01:17:08.966Z,75.96
2023-04-27T01:18:08.871Z,72.51
2023-04-27T01:19:08.917Z,69.25
2023-04-27T01:20:08.858Z,66.59
2023-04-27T01:21:08.798Z,63.00
2023-04-27T01:22:08.954Z,61.69
2023-04-27T01:23:08.777Z,59.70
2023-04-27T01:24:08.769Z,57.51
2023-04-27T01:25:08.775Z,55.26
2023-04-27T01:26:08.733Z,53.89
2023-04-27T01:27:08.751Z,53.07
2023-04-27T01:28:08.721Z,53.62
2023-04-27T01:29:08.721Z,55.26
2023-04-27T01:30:08.702Z,58.36
2023-04-27T01:31:08.729Z,60.84
2023-04-27T01:32:08.714Z,63.49
2023-04-27T01:33:08.803Z,66.48
2023-04-27T01:34:08.644Z,69.13
2023-04-27T01:35:08.639Z,72.01
2023-04-27T01:36:08.626Z,73.15
2023-04-27T01:37:08.606Z,73.67
2023-04-27T01:38:08.582Z,72.26
2023-04-27T01:39:08.581Z,69.08
2023-04-27T01:40:08.563Z,68.73
2023-04-27T01:41:08.539Z,68.39
2023-04-27T01:42:08.546Z,66.27
2023-04-27T01:43:08.520Z,64.97
2023-04-27T01:44:08.509Z,64.27
2023-04-27T01:45:08.501Z,62.34
2023-04-27T01:46:08.539Z,60.35
2023-04-27T01:47:08.476Z,58.24
2023-04-27T01:48:08.504Z,57.75
2023-04-27T01:49:08.453Z,56.96
2023-04-27T01:50:08.443Z,56.11
2023-04-27T01:51:08.434Z,55.00
2023-04-27T01:52:08.414Z,54.39
2023-04-27T01:53:08.394Z,54.60
2023-04-27T01:54:08.373Z,53.07
2023-04-27T01:55:08.371Z,52.73
2023-04-27T01:56:08.361Z,53.07
2023-04-27T01:57:08.341Z,54.07
2023-04-27T01:58:08.329Z,55.11
2023-04-27T01:59:08.326Z,56.04
2023-04-27T02:00:08.324Z,57.00
2023-04-27T02:01:08.314Z,56.80
2023-04-27T02:02:08.362Z,57.08
2023-04-27T02:03:08.389Z,56.23
2023-04-27T02:04:08.487Z,54.60
2023-04-27T02:05:08.269Z,52.93
2023-04-27T02:06:08.233Z,52.47
2023-04-27T02:07:08.209Z,51.68
2023-04-27T02:08:08.216Z,50.67
2023-04-27T02:09:08.195Z,49.97
2023-04-27T02:10:08.190Z,49.29
2023-04-27T02:11:08.172Z,48.09
2023-04-27T02:12:08.193Z,47.17
2023-04-27T02:13:08.142Z,46.54
2023-04-27T02:14:08.124Z,45.72
2023-04-27T02:15:08.147Z,44.88
2023-04-27T02:16:08.169Z,44.35
2023-04-27T02:17:08.086Z,43.61
2023-04-27T02:18:08.120Z,43.16
2023-04-27T02:19:08.048Z,42.63
2023-04-27T02:20:08.045Z,42.58
2023-04-27T02:21:08.039Z,41.90
2023-04-27T02:22:08.024Z,41.56
2023-04-27T02:23:08.031Z,40.43
2023-04-27T02:24:07.999Z,39.66
2023-04-27T02:25:07.994Z,39.10
2023-04-27T02:26:07.971Z,38.45
2023-04-27T02:27:07.957Z,37.96
2023-04-27T02:28:07.954Z,37.48
2023-04-27T02:29:08.002Z,37.11
2023-04-27T02:30:07.926Z,36.69
2023-04-27T02:31:07.927Z,36.46
2023-04-27T02:32:07.936Z,36.15
2023-04-27T02:33:07.960Z,35.77
2023-04-27T02:34:07.872Z,35.53
2023-04-27T02:35:07.889Z,35.44
2023-04-27T02:36:07.830Z,35.35
2023-04-27T02:37:07.825Z,35.14
2023-04-27T02:38:07.879Z,35.08
2023-04-27T02:39:07.812Z,34.84
2023-04-27T02:40:07.814Z,34.99
2023-04-27T02:41:07.772Z,34.64
2023-04-27T02:42:07.817Z,34.61
2023-04-27T02:43:07.754Z,34.38
2023-04-27T02:44:07.742Z,34.16
2023-04-27T02:45:07.733Z,34.04
2023-04-27T02:46:07.797Z,34.10
2023-04-27T02:47:07.751Z,34.16
2023-04-27T02:48:07.798Z,33.96
2023-04-27T02:49:07.676Z,34.04
2023-04-27T02:50:07.663Z,33.99
2023-04-27T02:51:07.704Z,34.13
2023-04-27T02:52:07.636Z,34.16
2023-04-27T02:53:07.629Z,34.41
2023-04-27T02:54:07.610Z,34.27
2023-04-27T02:55:07.582Z,34.44
2023-04-27T02:56:07.579Z,34.47
2023-04-27T02:57:07.594Z,34.53
2023-04-27T02:58:07.557Z,34.67
2023-04-27T02:59:07.539Z,34.87
2023-04-27T03:00:07.591Z,34.81
2023-04-27T03:01:07.561Z,34.93
2023-04-27T03:02:07.496Z,34.81
2023-04-27T03:03:07.692Z,34.73
2023-04-27T03:04:07.614Z,34.90
2023-04-27T03:05:07.456Z,34.87
2023-04-27T03:06:07.442Z,34.87
2023-04-27T03:07:07.423Z,34.73
2023-04-27T03:08:07.434Z,34.41
2023-04-27T03:09:07.410Z,34.44
2023-04-27T03:10:07.414Z,34.10
2023-04-27T03:11:07.387Z,34.07
2023-04-27T03:12:07.376Z,34.19
2023-04-27T03:13:07.347Z,34.04
2023-04-27T03:14:07.345Z,33.74
2023-04-27T03:15:07.331Z,33.80
2023-04-27T03:16:07.338Z,33.82
2023-04-27T03:17:07.320Z,33.91
2023-04-27T03:18:07.348Z,33.99
2023-04-27T03:19:07.281Z,33.85
2023-04-27T03:20:07.262Z,33.93
2023-04-27T03:21:07.283Z,33.96
2023-04-27T03:22:07.228Z,33.74
2023-04-27T03:23:07.270Z,33.85
2023-04-27T03:24:07.269Z,33.80
2023-04-27T03:25:07.193Z,33.77
2023-04-27T03:26:07.181Z,33.93
2023-04-27T03:27:07.183Z,34.02
2023-04-27T03:28:07.153Z,34.02
2023-04-27T03:29:07.149Z,34.07
2023-04-27T03:30:07.136Z,34.50
2023-04-27T03:31:07.125Z,34.67
2023-04-27T03:32:07.245Z,34.90
2023-04-27T03:33:07.175Z,34.99
2023-04-27T03:34:07.099Z,34.87
2023-04-27T03:35:07.076Z,34.87
2023-04-27T03:36:07.059Z,35.17
2023-04-27T03:37:07.051Z,35.59
2023-04-27T03:38:07.029Z,35.96
2023-04-27T03:39:07.017Z,36.53
2023-04-27T03:40:06.999Z,36.82
2023-04-27T03:41:07.041Z,36.98
2023-04-27T03:42:06.999Z,37.38
2023-04-27T03:43:06.951Z,37.99
2023-04-27T03:44:06.967Z,38.59
2023-04-27T03:45:06.994Z,39.10
2023-04-27T03:46:06.936Z,39.66
2023-04-27T03:47:06.909Z,40.04
2023-04-27T03:48:07.063Z,40.43
2023-04-27T03:49:06.893Z,41.56
2023-04-27T03:50:06.873Z,41.27
2023-04-27T03:51:06.906Z,40.95
2023-04-27T03:52:06.872Z,40.35
2023-04-27T03:53:06.867Z,40.08
2023-04-27T03:54:06.817Z,40.04
2023-04-27T03:55:06.812Z,39.58
2023-04-27T03:56:06.810Z,39.40
2023-04-27T03:57:06.783Z,38.81
2023-04-27T03:58:06.755Z,38.70
2023-04-27T03:59:06.761Z,38.34
2023-04-27T04:00:06.761Z,37.89
2023-04-27T04:01:06.757Z,37.79
2023-04-27T04:02:06.791Z,37.72
2023-04-27T04:03:07.115Z,37.21
2023-04-27T04:04:06.873Z,36.75
2023-04-27T04:05:06.779Z,36.46
2023-04-27T04:06:06.671Z,36.30
2023-04-27T04:07:06.669Z,36.30
2023-04-27T04:08:06.635Z,36.27
2023-04-27T04:09:06.615Z,35.93
2023-04-27T04:10:06.625Z,35.80
2023-04-27T04:11:06.608Z,35.90
2023-04-27T04:12:06.587Z,36.02
2023-04-27T04:13:06.580Z,36.15
2023-04-27T04:14:06.582Z,36.24
2023-04-27T04:15:06.565Z,36.21
2023-04-27T04:16:06.580Z,36.43
2023-04-27T04:17:06.524Z,36.33
2023-04-27T04:18:06.533Z,36.02
2023-04-27T04:19:06.511Z,36.15
2023-04-27T04:20:06.490Z,35.90
2023-04-27T04:21:06.473Z,35.71
2023-04-27T04:22:06.450Z,35.71
2023-04-27T04:23:06.453Z,35.71
2023-04-27T04:24:06.431Z,35.87
2023-04-27T04:25:06.429Z,35.59
2023-04-27T04:26:06.421Z,35.56
2023-04-27T04:27:06.435Z,35.41
2023-04-27T04:28:06.374Z,35.59
2023-04-27T04:29:07.191Z,35.50
2023-04-27T04:30:06.559Z,35.62
2023-04-27T04:31:06.391Z,35.50
2023-04-27T04:32:06.357Z,35.68
2023-04-27T04:33:06.341Z,35.56
2023-04-27T04:34:06.300Z,35.35
2023-04-27T04:35:06.313Z,35.23
2023-04-27T04:36:06.341Z,35.11
2023-04-27T04:37:06.288Z,34.90
2023-04-27T04:38:06.274Z,34.76
2023-04-27T04:39:06.294Z,34.79
2023-04-27T04:40:06.233Z,34.81
2023-04-27T04:41:06.269Z,34.81
2023-04-27T04:42:06.285Z,34.87
2023-04-27T04:43:06.273Z,34.87
2023-04-27T04:44:06.232Z,35.05
2023-04-27T04:45:06.171Z,35.23
2023-04-27T04:46:06.212Z,35.38
2023-04-27T04:47:06.143Z,35.53
2023-04-27T04:48:06.189Z,35.26
2023-04-27T04:49:06.123Z,35.32
2023-04-27T04:50:06.097Z,35.29
2023-04-27T04:51:06.090Z,35.17
2023-04-27T04:52:06.072Z,35.05
2023-04-27T04:53:06.065Z,35.05
2023-04-27T04:54:06.056Z,35.20
2023-04-27T04:55:06.027Z,35.20
2023-04-27T04:56:06.026Z,34.99
2023-04-27T04:57:06.019Z,35.11
2023-04-27T04:58:06.004Z,35.17
2023-04-27T04:59:05.977Z,35.29
2023-04-27T05:00:05.973Z,35.35
2023-04-27T05:01:05.991Z,35.35
2023-04-27T05:02:05.948Z,35.56
2023-04-27T05:03:06.051Z,35.90
2023-04-27T05:04:05.991Z,35.93
2023-04-27T05:05:05.902Z,36.30
2023-04-27T05:06:05.914Z,36.40
2023-04-27T05:07:05.876Z,36.75
2023-04-27T05:08:05.850Z,37.38
2023-04-27T05:09:05.858Z,38.38
2023-04-27T05:10:05.832Z,38.88
2023-04-27T05:11:05.845Z,40.16
2023-04-27T05:12:05.809Z,41.19
2023-04-27T05:13:07.186Z,41.23
2023-04-27T05:14:05.783Z,41.69
2023-04-27T05:15:05.772Z,43.20
2023-04-27T05:16:05.796Z,44.45
2023-04-27T05:17:05.747Z,44.78
2023-04-27T05:18:05.802Z,44.83
2023-04-27T05:19:05.734Z,43.20
2023-04-27T05:20:06.020Z,42.63
2023-04-27T05:21:05.708Z,41.52
2023-04-27T05:22:05.689Z,41.23
2023-04-27T05:23:05.674Z,41.27
2023-04-27T05:24:05.660Z,41.11
2023-04-27T05:25:05.636Z,40.99
2023-04-27T05:26:05.635Z,40.91
2023-04-27T05:27:05.619Z,41.07
2023-04-27T05:28:05.606Z,41.27
2023-04-27T05:29:05.607Z,41.69
2023-04-27T05:30:05.579Z,42.19
2023-04-27T05:31:05.559Z,42.63
2023-04-27T05:32:05.575Z,42.67
2023-04-27T05:33:05.607Z,42.41
2023-04-27T05:34:05.526Z,43.20
2023-04-27T05:35:05.533Z,44.17
2023-04-27T05:36:05.500Z,43.29
2023-04-27T05:37:05.498Z,42.28
2023-04-27T05:38:05.474Z,42.85
2023-04-27T05:39:05.460Z,42.58
2023-04-27T05:40:05.471Z,43.84
2023-04-27T05:41:05.478Z,46.59
2023-04-27T05:42:05.436Z,48.51
2023-04-27T05:43:05.687Z,52.40
2023-04-27T05:44:05.419Z,55.55
2023-04-27T05:45:05.399Z,56.26
2023-04-27T05:46:05.431Z,58.20
2023-04-27T05:47:05.358Z,60.48
2023-04-27T05:48:05.395Z,66.69
2023-04-27T05:49:05.331Z,71.45
2023-04-27T05:50:05.315Z,75.20
2023-04-27T05:51:05.339Z,78.69
2023-04-27T05:52:05.304Z,79.06
2023-04-27T05:53:05.292Z,84.44
2023-04-27T05:54:05.273Z,79.21
2023-04-27T05:55:05.269Z,74.59
2023-04-27T05:56:05.270Z,72.26
2023-04-27T05:57:05.229Z,73.86
2023-04-27T05:58:08.934Z,73.15
2023-04-27T05:59:05.226Z,75.89
2023-04-27T06:00:05.183Z,81.63
2023-04-27T06:01:05.197Z,89.64
2023-04-27T06:02:05.212Z,98.08
2023-04-27T06:03:05.374Z,96.94
2023-04-27T06:04:05.287Z,96.21
2023-04-27T06:05:05.171Z,96.21
2023-04-27T06:06:05.107Z,94.03
2023-04-27T06:07:05.161Z,100.82
2023-04-27T06:08:05.086Z,95.44
2023-04-27T06:09:05.066Z,94.53
2023-04-27T06:10:05.073Z,94.51
2023-04-27T06:11:05.044Z,95.62
2023-04-27T06:12:05.087Z,94.85
2023-04-27T06:13:05.014Z,97.39
2023-04-27T06:14:05.003Z,100.94
2023-04-27T06:15:04.991Z,101.81
2023-04-27T06:16:05.028Z,94.46
2023-04-27T06:17:04.975Z,86.02
2023-04-27T06:18:04.985Z,75.96
2023-04-27T06:19:04.954Z,72.51
2023-04-27T06:20:04.933Z,71.89
2023-04-27T06:21:04.946Z,68.56
2023-04-27T06:22:04.907Z,66.37
2023-04-27T06:23:04.893Z,63.63
2023-04-27T06:24:04.873Z,61.88
2023-04-27T06:25:04.895Z,60.75
2023-04-27T06:26:04.864Z,58.98
2023-04-27T06:27:04.883Z,56.61
2023-04-27T06:28:04.826Z,59.57
2023-04-27T06:29:04.808Z,60.53
2023-04-27T06:30:04.797Z,62.48
2023-04-27T06:31:04.883Z,62.20
2023-04-27T06:32:04.874Z,61.83
2023-04-27T06:33:04.808Z,62.25
2023-04-27T06:34:04.743Z,67.73
2023-04-27T06:35:04.742Z,72.51
2023-04-27T06:36:04.724Z,76.80
2023-04-27T06:37:04.722Z,79.44
2023-04-27T06:38:07.350Z,83.76
2023-04-27T06:39:04.686Z,92.22
2023-04-27T06:40:04.670Z,95.93
2023-04-27T06:41:04.671Z,96.15
2023-04-27T06:42:04.670Z,94.64
2023-04-27T06:43:04.639Z,91.71
2023-04-27T06:44:04.620Z,92.53
2023-04-27T06:45:04.618Z,94.31
2023-04-27T06:46:04.633Z,95.51
2023-04-27T06:47:04.605Z,94.51
2023-04-27T06:48:04.603Z,89.93
2023-04-27T06:49:04.552Z,83.60
2023-04-27T06:50:04.534Z,81.71
2023-04-27T06:51:04.546Z,87.37
2023-04-27T06:52:04.546Z,94.42
2023-04-27T06:53:04.511Z,98.49
2023-04-27T06:54:04.482Z,92.94
2023-04-27T06:55:04.502Z,98.61
2023-04-27T06:56:04.484Z,105.89
2023-04-27T06:57:04.452Z,101.74
2023-04-27T06:58:04.509Z,102.81
2023-04-27T06:59:04.428Z,111.50
2023-04-27T07:00:04.424Z,107.05
2023-04-27T07:01:04.419Z,104.89
2023-04-27T07:02:04.379Z,100.33
2023-04-27T07:03:04.523Z,93.57
2023-04-27T07:04:04.482Z,101.99
2023-04-27T07:05:04.397Z,106.09
2023-04-27T07:06:04.337Z,106.84
2023-04-27T07:07:04.314Z,105.96
2023-04-27T07:08:08.317Z,105.29
2023-04-27T07:09:10.421Z,104.10
2023-04-27T07:10:04.290Z,102.24
2023-04-27T07:11:04.272Z,95.95
2023-04-27T07:12:04.245Z,93.47
2023-04-27T07:13:04.858Z,92.84
2023-04-27T07:14:04.232Z,98.90
2023-04-27T07:15:04.249Z,104.62
2023-04-27T07:16:04.207Z,111.58
2023-04-27T07:17:04.194Z,114.42
2023-04-27T07:18:04.284Z,116.75
2023-04-27T07:19:04.184Z,105.56
2023-04-27T07:20:04.150Z,93.57
2023-04-27T07:21:04.133Z,95.49
2023-04-27T07:22:04.140Z,108.31
2023-04-27T07:23:04.126Z,113.10
2023-04-27T07:24:04.102Z,109.52
2023-04-27T07:25:04.084Z,106.98
2023-04-27T07:26:04.111Z,120.73
2023-04-27T07:27:04.070Z,122.24
2023-04-27T07:28:04.083Z,122.15
2023-04-27T07:29:11.232Z,152.80
2023-04-27T07:30:04.030Z,174.45
2023-04-27T07:31:04.017Z,186.61
2023-04-27T07:32:04.011Z,194.96
2023-04-27T07:33:04.019Z,185.34
2023-04-27T07:34:04.000Z,181.89
2023-04-27T07:35:03.983Z,187.68
2023-04-27T07:36:03.943Z,194.26
2023-04-27T07:37:03.983Z,200.95
2023-04-27T07:38:03.922Z,208.51
2023-04-27T07:39:03.909Z,208.78
2023-04-27T07:40:03.896Z,209.05
2023-04-27T07:41:03.880Z,204.09
2023-04-27T07:42:03.876Z,214.39
2023-04-27T07:43:03.867Z,228.80
2023-04-27T07:44:03.855Z,243.27
2023-04-27T07:45:03.837Z,228.32
2023-04-27T07:46:03.828Z,209.45
2023-04-27T07:47:03.831Z,201.07
2023-04-27T07:48:03.836Z,205.11
2023-04-27T07:49:03.813Z,202.44
2023-04-27T07:50:03.757Z,204.98
2023-04-27T07:51:03.777Z,202.32
2023-04-27T07:52:03.760Z,197.79
2023-04-27T07:53:03.727Z,164.60
2023-04-27T07:54:03.722Z,156.54
2023-04-27T07:55:03.718Z,161.25
2023-04-27T07:56:03.703Z,153.51
2023-04-27T07:57:03.678Z,159.24
2023-04-27T07:58:03.669Z,172.46
2023-04-27T07:59:03.678Z,178.19
2023-04-27T08:00:03.660Z,160.16
2023-04-27T08:01:03.656Z,148.04
2023-04-27T08:02:18.507Z,149.64
2023-04-27T08:03:03.898Z,170.34
2023-04-27T08:04:03.801Z,184.31
2023-04-27T08:05:04.014Z,189.31
2023-04-27T08:06:03.843Z,200.95
2023-04-27T08:07:04.267Z,207.85
2023-04-27T08:08:03.619Z,206.54
2023-04-27T08:09:03.541Z,215.38
2023-04-27T08:10:03.519Z,214.96
2023-04-27T08:11:03.517Z,217.68
2023-04-27T08:12:03.508Z,215.67
2023-04-27T08:13:03.515Z,195.66
2023-04-27T08:14:03.482Z,174.82
2023-04-27T08:15:03.447Z,160.47
2023-04-27T08:16:03.443Z,194.84
2023-04-27T08:17:03.655Z,224.25
2023-04-27T08:18:03.437Z,245.46
2023-04-27T08:19:03.412Z,234.04
2023-04-27T08:20:03.391Z,220.32
2023-04-27T08:21:03.374Z,199.24
2023-04-27T08:22:03.390Z,215.81
2023-04-27T08:23:03.349Z,210.66
2023-04-27T08:24:03.357Z,202.19
2023-04-27T08:25:03.336Z,211.48
2023-04-27T08:26:03.327Z,232.71
2023-04-27T08:27:03.303Z,258.27
2023-04-27T08:28:03.294Z,272.02
2023-04-27T08:29:12.044Z,234.55
2023-04-27T08:30:03.303Z,242.01
2023-04-27T08:31:03.277Z,262.41
2023-04-27T08:32:03.263Z,284.32
2023-04-27T08:33:03.247Z,283.09
2023-04-27T08:34:03.258Z,286.32
2023-04-27T08:35:03.227Z,294.04
2023-04-27T08:36:03.200Z,279.94
2023-04-27T08:37:03.176Z,282.85
2023-04-27T08:38:03.172Z,306.16
2023-04-27T08:39:03.166Z,326.33
2023-04-27T08:40:03.187Z,323.43
2023-04-27T08:41:18.096Z,305.59
2023-04-27T08:42:03.151Z,324.39
2023-04-27T08:43:03.132Z,352.74
2023-04-27T08:44:03.113Z,368.24
2023-04-27T08:45:03.137Z,353.12
2023-04-27T08:46:03.153Z,275.46
2023-04-27T08:47:03.094Z,256.04
2023-04-27T08:48:03.141Z,267.35
2023-04-27T08:49:03.036Z,259.91
2023-04-27T08:50:03.024Z,259.70
2023-04-27T08:51:03.030Z,296.44
2023-04-27T08:52:03.011Z,335.72
2023-04-27T08:53:02.998Z,353.12
2023-04-27T08:54:03.004Z,335.37
2023-04-27T08:55:02.965Z,363.73
2023-04-27T08:56:02.970Z,407.32
2023-04-27T08:57:02.954Z,432.51
2023-04-27T08:58:02.926Z,438.51
2023-04-27T08:59:02.906Z,437.06
2023-04-27T09:00:02.903Z,412.63
2023-04-27T09:01:02.902Z,409.33
2023-04-27T09:02:02.947Z,407.32
2023-04-27T09:03:03.024Z,389.87
2023-04-27T09:04:03.131Z,404.10
2023-04-27T09:05:03.030Z,425.58
2023-04-27T09:06:05.871Z,463.27
2023-04-27T09:07:02.813Z,487.41
2023-04-27T09:08:02.810Z,498.75
2023-04-27T09:09:02.865Z,501.39
2023-04-27T09:10:02.825Z,499.12
2023-04-27T09:11:02.797Z,494.30
2023-04-27T09:12:02.763Z,482.80
2023-04-27T09:13:02.747Z,475.54
2023-04-27T09:14:02.743Z,433.92
2023-04-27T09:15:02.716Z,399.24
2023-04-27T09:16:02.754Z,362.52
2023-04-27T09:17:02.686Z,307.31
2023-04-27T09:18:02.735Z,299.43
2023-04-27T09:19:02.668Z,302.48
2023-04-27T09:20:02.656Z,316.23
2023-04-27T09:21:02.710Z,321.52
2023-04-27T09:22:02.647Z,345.65
2023-04-27T09:23:02.613Z,364.14
2023-04-27T09:24:02.643Z,353.89
2023-04-27T09:25:02.666Z,340.61
2023-04-27T09:26:02.580Z,328.30
2023-04-27T09:27:02.588Z,310.23
2023-04-27T09:28:02.705Z,309.05
2023-04-27T09:29:02.579Z,272.47
2023-04-27T09:30:02.568Z,207.72
2023-04-27T09:31:02.654Z,206.41
2023-04-27T09:32:02.566Z,190.41
2023-04-27T09:33:02.654Z,203.58
2023-04-27T09:34:02.516Z,205.11
2023-04-27T09:35:02.478Z,187.68
2023-04-27T09:36:02.477Z,222.12
2023-04-27T09:37:02.496Z,272.93
2023-04-27T09:38:02.457Z,325.03
2023-04-27T09:39:02.431Z,359.73
2023-04-27T09:40:02.424Z,371.17
2023-04-27T09:41:02.399Z,384.90
2023-04-27T09:42:02.401Z,351.23
2023-04-27T09:43:02.377Z,294.04
2023-04-27T09:44:02.489Z,270.89
2023-04-27T09:45:02.389Z,305.59
2023-04-27T09:46:02.402Z,339.20
2023-04-27T09:47:02.346Z,360.13
2023-04-27T09:48:02.429Z,371.59
2023-04-27T09:49:02.306Z,366.59
2023-04-27T09:50:02.304Z,411.35
2023-04-27T09:51:02.298Z,456.27
2023-04-27T09:52:02.362Z,455.02
2023-04-27T09:53:02.270Z,436.20
2023-04-27T09:54:02.261Z,441.42
2023-04-27T09:55:11.690Z,439.38
2023-04-27T09:56:02.463Z,432.79
2023-04-27T09:57:02.232Z,432.23
2023-04-27T09:58:02.238Z,437.93
2023-04-27T09:59:03.176Z,440.54
2023-04-27T10:00:02.199Z,437.35
2023-04-27T10:01:02.272Z,365.77
2023-04-27T10:02:10.084Z,320.26
2023-04-27T10:03:02.272Z,326.01
2023-04-27T10:04:02.228Z,331.96
2023-04-27T10:05:02.152Z,340.61
2023-04-27T10:06:02.133Z,340.61
2023-04-27T10:07:02.130Z,325.68
2023-04-27T10:08:02.110Z,309.64
2023-04-27T10:09:02.064Z,329.62
2023-04-27T10:10:02.045Z,313.80
2023-04-27T10:11:02.054Z,347.49
2023-04-27T10:12:02.036Z,380.49
2023-04-27T10:13:02.109Z,429.99
2023-04-27T10:14:02.005Z,406.57
2023-04-27T10:15:01.973Z,366.59
2023-04-27T10:16:01.977Z,371.17
2023-04-27T10:17:02.080Z,404.83
2023-04-27T10:18:01.993Z,414.95
2023-04-27T10:19:01.932Z,432.23
2023-04-27T10:20:01.943Z,432.23
2023-04-27T10:21:01.893Z,424.49
2023-04-27T10:22:01.913Z,435.92
2023-04-27T10:23:01.917Z,448.57
2023-04-27T10:24:01.876Z,477.60
2023-04-27T10:25:01.847Z,511.81
2023-04-27T10:26:01.836Z,510.63
2023-04-27T10:27:01.823Z,531.04
2023-04-27T10:28:01.816Z,512.21
2023-04-27T10:29:01.841Z,502.14
2023-04-27T10:30:01.801Z,509.85
2023-04-27T10:31:01.828Z,534.89
2023-04-27T10:32:01.760Z,559.68
2023-04-27T10:33:01.861Z,529.77
2023-04-27T10:34:01.739Z,526.41
2023-04-27T10:35:01.724Z,475.20
2023-04-27T10:36:01.724Z,484.56
2023-04-27T10:37:01.696Z,462.63
2023-04-27T10:38:01.694Z,387.82
2023-04-27T10:39:01.681Z,295.64
2023-04-27T10:40:01.664Z,279.94
2023-04-27T10:41:01.778Z,276.62
2023-04-27T10:42:01.635Z,256.24
2023-04-27T10:43:01.615Z,315.31
2023-04-27T10:44:01.630Z,380.49
2023-04-27T10:45:01.600Z,397.57
2023-04-27T10:46:01.628Z,384.45
2023-04-27T10:47:01.622Z,433.36
2023-04-27T10:48:01.816Z,474.52
2023-04-27T10:49:01.533Z,483.15
2023-04-27T10:50:01.541Z,461.02
2023-04-27T10:51:01.549Z,480.01
2023-04-27T10:52:01.490Z,471.49
2023-04-27T10:53:01.482Z,444.67
2023-04-27T10:54:01.496Z,390.33
2023-04-27T10:55:01.461Z,342.76
2023-04-27T10:56:01.440Z,352.74
2023-04-27T10:57:01.458Z,361.32
2023-04-27T10:58:01.420Z,382.24
2023-04-27T10:59:01.412Z,402.14
2023-04-27T11:00:01.484Z,384.23
2023-04-27T11:01:01.366Z,335.03
2023-04-27T11:02:01.429Z,325.03
2023-04-27T11:03:01.440Z,332.98
2023-04-27T11:04:01.368Z,260.95
2023-04-27T11:05:01.504Z,268.89
2023-04-27T11:06:01.323Z,250.93
2023-04-27T11:07:01.311Z,311.71
2023-04-27T11:08:01.289Z,373.71
2023-04-27T11:09:01.264Z,392.40
2023-04-27T11:10:01.275Z,394.03
2023-04-27T11:11:01.260Z,420.46
2023-04-27T11:12:01.228Z,426.68
2023-04-27T11:13:01.283Z,419.14
2023-04-27T11:14:01.193Z,433.64
2023-04-27T11:15:01.249Z,472.50
2023-04-27T11:16:01.278Z,561.09
2023-04-27T11:17:01.169Z,582.24
2023-04-27T11:18:02.271Z,555.46
2023-04-27T11:19:01.175Z,503.67
2023-04-27T11:20:01.132Z,536.19
2023-04-27T11:21:01.164Z,510.24
2023-04-27T11:22:01.094Z,472.50
2023-04-27T11:23:01.092Z,525.17
2023-04-27T11:24:01.114Z,571.72
2023-04-27T11:25:02.012Z,551.32
2023-04-27T11:26:01.054Z,533.17
2023-04-27T11:27:01.052Z,515.39
2023-04-27T11:28:01.611Z,524.34
2023-04-27T11:29:01.015Z,431.11
2023-04-27T11:30:00.990Z,453.47
2023-04-27T11:31:01.037Z,501.01
2023-04-27T11:32:01.081Z,549.04
2023-04-27T11:33:00.998Z,550.86
2023-04-27T11:34:00.971Z,503.28
2023-04-27T11:35:00.915Z,452.85
2023-04-27T11:36:00.922Z,391.02
2023-04-27T11:37:10.688Z,390.55
2023-04-27T11:38:00.919Z,441.12
2023-04-27T11:39:00.880Z,371.17
2023-04-27T11:40:00.858Z,317.77
2023-04-27T11:41:00.837Z,329.62
2023-04-27T11:42:00.846Z,360.13
2023-04-27T11:43:00.813Z,362.52
2023-04-27T11:44:00.796Z,430.55
2023-04-27T11:45:00.791Z,448.57
2023-04-27T11:46:00.800Z,489.20
2023-04-27T11:47:00.797Z,518.20
2023-04-27T11:48:00.783Z,511.81
2023-04-27T11:49:00.763Z,476.91
2023-04-27T11:50:00.729Z,473.51
2023-04-27T11:51:00.723Z,501.39
2023-04-27T11:52:00.715Z,582.24
2023-04-27T11:53:00.693Z,579.19
2023-04-27T11:54:00.654Z,552.23
2023-04-27T11:55:00.642Z,530.20
2023-04-27T11:56:00.659Z,483.15
2023-04-27T11:57:01.352Z,469.49
2023-04-27T11:58:00.697Z,443.18
2023-04-27T11:59:00.633Z,452.85
2023-04-27T12:00:00.717Z,425.58
2023-04-27T12:01:00.566Z,355.81
2023-04-27T12:02:00.766Z,353.89
2023-04-27T12:03:00.806Z,322.47
2023-04-27T12:04:02.383Z,348.60
2023-04-27T12:05:00.816Z,456.27
2023-04-27T12:06:16.106Z,486.34
2023-04-27T12:07:00.508Z,513.00
2023-04-27T12:08:00.806Z,538.80
2023-04-27T12:09:00.451Z,493.20
2023-04-27T12:10:01.069Z,466.86
2023-04-27T12:11:00.444Z,478.28
2023-04-27T12:12:00.449Z,451.93
2023-04-27T12:13:00.405Z,417.30
2023-04-27T12:14:00.410Z,390.55
2023-04-27T12:15:00.382Z,406.07
2023-04-27T12:16:01.108Z,358.55
2023-04-27T12:17:00.404Z,417.56
2023-04-27T12:18:00.413Z,445.27
2023-04-27T12:19:00.342Z,518.61
2023-04-27T12:20:00.342Z,585.32
2023-04-27T12:21:03.054Z,586.87
2023-04-27T12:22:00.279Z,561.57
2023-04-27T12:23:01.191Z,589.47
2023-04-27T12:24:00.251Z,583.77
2023-04-27T12:25:00.255Z,561.09
2023-04-27T12:26:00.235Z,505.97
2023-04-27T12:27:00.213Z,498.38
2023-04-27T12:28:00.222Z,534.89
2023-04-27T12:29:00.195Z,490.65
2023-04-27T12:30:00.214Z,530.62
2023-04-27T12:31:01.928Z,519.82
2023-04-27T12:32:00.259Z,545.88
2023-04-27T12:33:00.239Z,581.22
2023-04-27T12:34:00.176Z,611.73
2023-04-27T12:35:00.135Z,608.36
2023-04-27T12:36:00.169Z,550.40
2023-04-27T12:37:00.111Z,588.95
2023-04-27T12:38:00.135Z,613.42
2023-04-27T12:39:00.060Z,587.91